Essex 999 Triathlon - Saturday 7th July 2012

1K Swim / 40K Cycle / 10K Run

Results by Galeforce Events

Finish Status Pos FirstName LastName Race No Time Category Categ Pos Gender Gender Pos Club Swim Swim Pace SwimOverallPos T1 T1OverallPos Cycle Cycle Pace CycleOverallPos T2 T2OverallPos Run Run Pace RunOverallPos Service
Finished 1 Robert Quantrell 95 01:55:54 Male Open 1 Male 1 IM Talk 00:13:35 1:21 sec/100m 2 00:00:56 4 01:03:51 23.3 m/hr 1 00:00:42 6 00:36:49 5:56 min/m 2 No
Finished 2 Andrew Jopson 21 02:02:05 Male Open 2 Male 2 PSUK / Blackwater Tri 00:14:39 1:27 sec/100m 4 00:01:19 11 01:10:08 21.2 m/hr 8 00:00:33 1 00:35:24 5:42 min/m 1 Police
Finished 3 Simon Maskell 16 02:03:32 Male Open 3 Male 3 Essex Fire Tri 00:13:15 1:19 sec/100m 1 00:01:08 7 01:08:00 21.9 m/hr 4 00:00:58 27 00:40:09 6:28 min/m 6 Fire
Finished 4 Justin Howard 42 02:07:28 Male Vet 1 Male 4 Team Gatorade 00:16:43 1:40 sec/100m 14 00:00:55 3 01:09:53 21.3 m/hr 6 00:00:40 5 00:39:15 6:19 min/m 4 No
Finished 5 Stuart Hope 59 02:10:06 Male Vet 2 Male 5 Born 2 Tri 00:15:39 1:33 sec/100m 7 00:00:59 5 01:09:40 21.4 m/hr 5 00:00:50 13 00:42:56 6:55 min/m 15 No
Finished 6 Kathryn Berry 14 02:10:20 Female 1 Female 1 Tri Camp Race Team 00:14:11 1:25 sec/100m 3 00:00:46 1 01:12:34 20.5 m/hr 14 00:00:44 7 00:42:03 6:47 min/m 10 No
Finished 7 Tony Poole 60 02:11:09 Male Vet 3 Male 6   00:19:23 1:56 sec/100m 37 00:01:34 28 01:05:53 22.6 m/hr 2 00:00:51 15 00:43:26 7:00 min/m 17 No
Finished 8 Jack Denham 92 02:12:28 Male Open 4 Male 7                             No
Finished 9 Dave Lumby 62 02:12:46 Male Vet 4 Male 8 Ipswich Triathlon Club 00:18:15 1:49 sec/100m 22 00:01:43 35 01:07:58 21.9 m/hr 3 00:00:59 29 00:43:49 7:04 min/m 20 No
Finished 10 Jonathan Bishop 48 02:13:36 Male Vet 5 Male 9 ELT 00:16:15 1:37 sec/100m 12 00:01:28 18 01:12:36 20.5 m/hr 15 00:00:49 11 00:42:27 6:50 min/m 12 No
Finished 11 Keith Wilson 43 02:14:08 Male Vet 6 Male 10   00:15:21 1:32 sec/100m 6 00:01:30 20 01:09:57 21.3 m/hr 7 00:00:55 20 00:46:22 7:28 min/m 29 No
Finished 12 Martin Tomkins 90 02:14:14 Male Open 5 Male 11   00:18:52 1:53 sec/100m 33 00:01:04 6 01:10:27 21.1 m/hr 10 00:00:35 3 00:43:14 6:58 min/m 16 No
Finished 13 Nic Clarke 98 02:14:34 Male Open 6 Male 12   00:18:48 1:52 sec/100m 30 00:01:33 27 01:13:01 20.4 m/hr 17 00:01:04 38 00:40:06 6:28 min/m 5 No
Finished 14 Martin Archer 61 02:14:58 Male Vet 7 Male 13 Ipswich Triathlon Club 00:18:09 1:48 sec/100m 20 00:01:42 34 01:12:09 20.6 m/hr 12 00:01:02 34 00:41:55 6:45 min/m 8 No
Finished 15 Paul Hearmon 80 02:15:02 Male Open 7 Male 14 East Essex Tri Club 00:16:01 1:36 sec/100m 11 00:01:27 17 01:19:28 18.7 m/hr 43 00:00:46 9 00:37:17 6:00 min/m 3 No
Finished 16 Gerard Wattam 85 02:17:31 Male Open 8 Male 15 2 Para tri club 00:21:24 2:08 sec/100m 52 00:01:31 24 01:11:06 20.9 m/hr 11 00:01:00 31 00:42:28 6:51 min/m 13 No
Finished 17 Ben Taylor 83 02:17:40 Male Open 9 Male 16   00:18:17 1:49 sec/100m 23 00:01:40 32 01:10:24 21.1 m/hr 9 00:01:02 33 00:46:15 7:27 min/m 27 No
Finished 18 Peter Hawtree 97 02:17:43 Male Open 10 Male 17 East Essex Tri Club 00:18:15 1:49 sec/100m 21 00:01:20 12 01:14:47 19.9 m/hr 22 00:00:57 23 00:42:22 6:50 min/m 11 No
Finished 19 Philip Gibsone 54 02:18:15 Male Vet 8 Male 18 Stortford Tri 00:19:35 1:57 sec/100m 40 00:01:12 8 01:12:46 20.4 m/hr 16 00:00:49 12 00:43:51 7:04 min/m 21 No
Finished 20 Bernie Wolff 11 02:19:15 Female 2 Female 2 ELT 00:18:20 1:50 sec/100m 24 00:01:21 13 01:14:58 19.8 m/hr 23 00:00:47 10 00:43:49 7:04 min/m 19 No
Finished 21 Daniel Brand 79 02:19:51 Male Open 11 Male 19 East Essex Tri Club 00:15:15 1:31 sec/100m 5 00:01:24 16 01:13:39 20.2 m/hr 19 00:00:59 28 00:48:32 7:49 min/m 41 No
Finished 22 Nigel Golland 23 02:20:22 Male Vet 9 Male 20 Essex Fire Tri 00:18:59 1:53 sec/100m 35 00:01:30 23 01:16:38 19.4 m/hr 30 00:01:12 42 00:42:00 6:46 min/m 9 Fire
Finished 23 Lee Crowson 25 02:21:20 Male Vet 10 Male 21 Essex Fire Tri 00:18:49 1:52 sec/100m 32 00:01:54 44 01:14:10 20.1 m/hr 21 00:01:09 41 00:45:16 7:18 min/m 24 Fire
Finished 24 David Gibson 63 02:21:28 Male Vet 11 Male 22 Blackwater Triathlon Club 00:17:12 1:43 sec/100m 15 00:01:47 37 01:12:27 20.5 m/hr 13 00:01:13 45 00:48:46 7:52 min/m 45 No
Finished 25 Jayne Williams 15 02:22:03 Female Vet 1 Female 3 Ipswich Triathlon Club 00:21:18 2:07 sec/100m 51 00:01:41 33 01:13:47 20.2 m/hr 20 00:01:03 37 00:44:13 7:07 min/m 22 No
Finished 26 Paul Smith 77 02:22:31 Male Open 12 Male 23 East London Triathletes 00:15:56 1:35 sec/100m 10 00:01:33 26 01:18:43 18.9 m/hr 36 00:01:57 71 00:44:20 7:09 min/m 23 No
Finished 27 Chris Milne 40 02:22:37 Male Vet 12 Male 24 East Essex Tri Club 00:19:42 1:58 sec/100m 43 00:01:51 40 01:13:20 20.3 m/hr 18 00:01:22 54 00:46:20 7:28 min/m 28 No
Finished 28 Colin Clarke 37 02:22:57 Male Vet 13 Male 25   00:19:38 1:57 sec/100m 41 00:02:25 57 01:18:55 18.9 m/hr 37 00:00:34 2 00:41:24 6:40 min/m 7 No
Finished 29 Nick Beales 55 02:24:56 Male Vet 14 Male 26 Harwich Runners 00:19:30 1:57 sec/100m 39 00:01:38 30 01:16:36 19.4 m/hr 29 00:00:59 30 00:46:10 7:26 min/m 26 No
Finished 30 John Tillson 99 02:25:21 Male Open 13 Male 27   00:15:44 1:34 sec/100m 8 00:00:54 2 01:20:45 18.4 m/hr 46 00:01:01 32 00:46:56 7:34 min/m 33 No
Finished 31 Denis Melia 84 02:25:44 Male Open 14 Male 28   00:20:18 2:01 sec/100m 47 00:01:51 41 01:19:03 18.8 m/hr 38 00:01:02 35 00:43:28 7:00 min/m 18 No
Finished 32 Glen Widdows 87 02:25:52 Male Open 15 Male 29   00:17:54 1:47 sec/100m 19 00:02:05 53 01:15:38 19.7 m/hr 26 00:00:57 24 00:49:15 7:56 min/m 48 No
Finished 33 John Mccarthy 51 02:26:50 Male Vet 15 Male 30 Blackwater Triathlon Club 00:17:43 1:46 sec/100m 18 00:01:54 43 01:19:08 18.8 m/hr 39 00:00:52 16 00:47:12 7:36 min/m 35 No
Finished 34 Mark Saville 82 02:27:45 Male Open 16 Male 31 East Essex Tri Club 00:19:25 1:56 sec/100m 38 00:01:24 15 01:17:31 19.2 m/hr 32 00:00:58 26 00:48:25 7:48 min/m 40 No
Finished 35 Andrew Moore 41 02:27:54 Male Vet 16 Male 32   00:19:13 1:55 sec/100m 36 00:02:43 65 01:17:27 19.2 m/hr 31 00:01:03 36 00:47:26 7:39 min/m 36 No
Finished 36 Gabriela De La Cerda 4 02:28:05 Female 3 Female 4   00:18:44 1:52 sec/100m 29 00:01:54 42 01:20:44 18.4 m/hr 45 00:01:15 46 00:45:27 7:19 min/m 25 No
Finished 37 Christopher Baines 93 02:28:07 Male Open 17 Male 33   00:20:39 2:03 sec/100m 49 00:01:23 14 01:17:52 19.1 m/hr 34 00:01:25 55 00:46:45 7:32 min/m 31 No
Finished 38 Andrew Pipe 89 02:28:35 Male Open 18 Male 34   00:21:43 2:10 sec/100m 55 00:01:30 19 01:18:01 19.1 m/hr 35 00:00:50 14 00:46:30 7:30 min/m 30 No
Finished 39 John Goldsworthy 65 02:28:58 Male Open 19 Male 35 HMJG 00:19:54 1:59 sec/100m 44 00:01:37 29 01:19:33 18.7 m/hr 44 00:00:53 18 00:46:59 7:34 min/m 34 No
Finished 40 Greg Virgoe 53 02:29:42 Male Vet 17 Male 36 Blackwater Triathlon 00:17:40 1:46 sec/100m 17 00:01:39 31 01:19:24 18.7 m/hr 42 00:01:20 51 00:49:36 8:00 min/m 50 No
Finished 41 Josephine Clarke 6 02:30:31 Female Vet 2 Female 5   00:20:09 2:00 sec/100m 46 00:01:49 39 01:19:17 18.8 m/hr 40 00:00:38 4 00:48:36 7:50 min/m 42 No
Finished 42 Glen Curtis 96 02:30:33 Male Open 20 Male 37 Ipswich Triathlon Club 00:24:37 2:27 sec/100m 68 00:01:12 9 01:15:05 19.8 m/hr 24 00:00:56 21 00:48:41 7:51 min/m 44 No
Finished 43 David Pashley 29 02:30:54 Male Vet 18 Male 38 Blackwater Triathlon Club 00:18:48 1:52 sec/100m 31 00:01:55 45 01:15:18 19.8 m/hr 25 00:01:08 40 00:53:43 8:39 min/m 61 No
Finished 44 Simon Ford 20 02:31:36 Male Vet 19 Male 39 East Essex Tri Club 00:17:39 1:45 sec/100m 16 00:01:32 25 01:16:24 19.5 m/hr 28 00:01:07 39 00:54:52 8:51 min/m 62 Police
Finished 45 Paula Purtell 9 02:33:28 Female Vet 3 Female 6 Blackwater Triathlon Club 00:18:40 1:52 sec/100m 27 00:01:58 47 01:22:42 18.0 m/hr 56 00:01:12 43 00:48:54 7:53 min/m 46 No
Finished 46 Marion Walker 13 02:33:49 Female Vet 4 Female 7 Tri Anglia 00:18:35 1:51 sec/100m 26 00:02:04 51 01:22:32 18.0 m/hr 55 00:00:57 22 00:49:38 8:00 min/m 51 No
Finished 47 Robert Thomson 22 02:34:14 Male Vet 20 Male 40 Essex Fire Tri 00:22:10 2:13 sec/100m 57 00:02:03 50 01:17:40 19.2 m/hr 33 00:01:15 48 00:51:04 8:14 min/m 55 Fire
Finished 48 Michael Perryman 100 02:34:55 Male Open 21 Male 41   00:18:57 1:53 sec/100m 34 00:02:01 49 01:29:48 16.6 m/hr 67 00:01:34 60 00:42:32 6:51 min/m 14 No
Finished 49 Colin Corby 52 02:35:02 Male Vet 21 Male 42 Blackwater Triathlon Club 00:15:44 1:34 sec/100m 9 00:02:35 63 01:21:36 18.2 m/hr 52 00:01:28 57 00:53:38 8:39 min/m 60 No
Finished 50 Barry Armstrong 38 02:35:16 Male Vet 22 Male 43 Blackwater Triathlon Club 00:20:56 2:05 sec/100m 50 00:01:59 48 01:21:34 18.2 m/hr 50 00:01:16 49 00:49:30 7:59 min/m 49 No
Finished 51 Kevin Carley 50 02:36:46 Male Vet 23 Male 44 Blackwater Triathlon Club 00:18:33 1:51 sec/100m 25 00:02:06 54 01:23:38 17.8 m/hr 57 00:01:26 56 00:51:01 8:13 min/m 54 No
Finished 52 Stephen Clark 91 02:37:37 Male Open 22 Male 45 Ipswich Triathlon Club 00:20:02 2:00 sec/100m 45 00:01:13 10 01:16:04 19.6 m/hr 27 00:00:53 19 00:59:23 9:34 min/m 68 No
Finished 53 Bryony Maddams 3 02:37:40 Female Vet 5 Female 8   00:19:41 1:58 sec/100m 42 00:01:44 36 01:25:28 17.4 m/hr 58 00:00:58 25 00:49:47 8:01 min/m 52 No
Finished 54 Andrew Hansler 36 02:38:03 Male Vet 24 Male 46 Ipswich Triathlon Club 00:22:53 2:17 sec/100m 61 00:02:11 55 01:21:19 18.3 m/hr 49 00:02:25 73 00:49:14 7:56 min/m 47 No
Finished 55 Dave Cox 39 02:38:23 Male Vet 25 Male 47 Thurrock Nomads 00:24:24 2:26 sec/100m 67 00:03:20 69 01:22:22 18.1 m/hr 54 00:01:22 52 00:46:53 7:33 min/m 32 No
Finished 56 Paul Mitchell 72 02:40:08 Male Open 23 Male 48 Thurrock Nomads 00:18:41 1:52 sec/100m 28 00:02:39 64 01:27:08 17.1 m/hr 62 00:01:48 67 00:49:50 8:02 min/m 53 No
Finished 57 Brian Finlay 81 02:42:33 Male Open 24 Male 49 Team Viper 00:23:36 2:21 sec/100m 65 00:02:43 66 01:27:00 17.1 m/hr 61 00:00:53 17 00:48:19 7:47 min/m 37 No
Finished 58 Paul Halsey 30 02:42:55 Male Vet 26 Male 50   00:21:46 2:10 sec/100m 56 00:03:05 67 01:28:25 16.8 m/hr 64 00:01:12 44 00:48:25 7:48 min/m 39 No
Finished 59 Ian Harvey 17 02:43:03 Male Open 25 Male 51   00:28:16 2:49 sec/100m 72 00:02:17 56 01:20:57 18.4 m/hr 47 00:02:54 74 00:48:38 7:50 min/m 43 Ambulance
Finished 60 Daniel Moran 78 02:43:59 Male Open 26 Male 52   00:20:38 2:03 sec/100m 48 00:02:29 60 01:26:10 17.3 m/hr 59 00:01:37 63 00:53:03 8:33 min/m 58 No
Finished 61 Sarah Vick 2 02:45:40 Female Vet 6 Female 9 The Saxons 00:25:30 2:33 sec/100m 70 00:01:30 22 01:29:30 16.6 m/hr 66 00:00:46 8 00:48:21 7:48 min/m 38 No
Finished 62 Peter Wilson 58 02:46:46 Male Vet 27 Male 53   00:22:41 2:16 sec/100m 60 00:03:40 71 01:21:52 18.2 m/hr 53 00:01:35 62 00:56:56 9:11 min/m 64 No
Finished 63 Paul Franklin 56 02:47:35 Male Vet 28 Male 54 Castle Point Joggers 00:28:12 2:49 sec/100m 71 00:03:39 70 01:21:03 18.4 m/hr 48 00:01:15 47 00:53:24 8:36 min/m 59 No
Finished 64 Richard Bickers 35 02:48:51 Male Vet 29 Male 55   00:23:53 2:23 sec/100m 66 00:04:05 73 01:26:49 17.1 m/hr 60 00:01:50 69 00:52:12 8:25 min/m 56 No
Finished 65 Brian Dilley 44 02:49:56 Male Vet 30 Male 56 Trent Park R.C. 00:24:43 2:28 sec/100m 69 00:02:26 58 01:28:56 16.7 m/hr 65 00:01:20 50 00:52:28 8:27 min/m 57 No
Finished 66 David Pawsey 71 02:50:34 Male Open 27 Male 57 East Grinstead Tri Club 00:21:29 2:08 sec/100m 53 00:03:08 68 01:21:35 18.2 m/hr 51 00:01:34 61 01:02:46 10:07 min/m 69 No
Finished 67 Julie Peacock 10 02:53:06 Female Vet 7 Female 10 Blackwater Triathlon Club 00:23:15 2:19 sec/100m 64 00:02:05 52 01:28:21 16.8 m/hr 63 00:01:29 58 00:57:55 9:20 min/m 66 No
Finished 68 Alisha Green 12 02:54:30 Female 4 Female 11 East Essex Triathlon Club 00:16:16 1:37 sec/100m 13 00:01:30 21 01:37:29 15.3 m/hr 70 00:01:22 53 00:57:52 9:20 min/m 65 No
Finished 69 Henry Monaghan 31 02:58:34 Male Vet 31 Male 58 ERCC 00:22:38 2:15 sec/100m 59 00:02:32 62 01:32:07 16.2 m/hr 68 00:02:07 72 00:59:08 9:32 min/m 67 No
Finished 70 Mark Bygrave 64 02:59:42 Male Vet 32 Male 59 HPU 00:21:30 2:09 sec/100m 54 00:02:28 59 01:19:23 18.7 m/hr 41 00:01:47 66 01:14:32 12:01 min/m 74 No
Finished 71 Dennis Bright 69 03:06:54 Male Open 28 Male 60 HMJG 00:22:57 2:17 sec/100m 62 00:04:01 72 01:33:44 15.9 m/hr 69 00:01:48 68 01:04:22 10:23 min/m 71 No
Finished 72 Colette Smith 8 03:10:48 Female 5 Female 12 East London Triathletes 00:22:12 2:13 sec/100m 58 00:01:48 38 01:42:07 14.6 m/hr 72 00:01:44 64 01:02:55 10:08 min/m 70 No
Finished 73 Heather Guttery 7 03:13:37 Female Vet 8 Female 13   00:23:01 2:18 sec/100m 63 00:02:30 61 01:38:34 15.1 m/hr 71 00:01:56 70 01:07:34 10:53 min/m 72 No
Finished 74 Kirk Johnson 70 03:22:09 Male Open 29 Male 61   00:30:34 3:03 sec/100m 73 00:01:58 46 01:51:30 13.3 m/hr 74 00:01:34 59 00:56:32 9:07 min/m 63 No
Finished 75 Declan Smith 47 03:35:37 Male Vet 33 Male 62   00:32:29 3:14 sec/100m 74 00:04:25 74 01:47:01 13.9 m/hr 73 00:01:44 65 01:09:56 11:16 min/m 73 No
Withdrawn during race   Scot Potter 57   Male Vet   Male   Six Gas CC 00:19:26 1:56 sec/100m   00:01:18                   No
Withdrawn during race   Rob Tate 34   Male Vet   Male     00:17:18 1:43 sec/100m   00:02:44   01:15:53 19.6 m/hr             No